Time;durP1;ratioP1;P1;durP2;ratioP2;P2;SDS_P1;SDS_P2;PMS_P1;PMS_P2;Temp;Humidity;BMP_temperature;BMP_pressure;BME280_temperature;BME280_humidity;BME280_pressure;Samples;Min_cycle;Max_cycle;Signal;HPM_P1;HPM_P2
2023/09/04 00:00:46;;;;;;;4.30;4.03;;;17.50;99.90;;;;;;4977641;28;20475;-78
2023/09/04 00:03:34;;;;;;;4.90;4.47;;;17.40;99.90;;;;;;4977404;28;20468;-78
2023/09/04 00:06:22;;;;;;;4.60;4.30;;;17.40;99.90;;;;;;4977634;28;20461;-77
2023/09/04 00:09:06;;;;;;;4.67;4.27;;;17.40;99.90;;;;;;4977854;28;20492;-78
2023/09/04 00:18:17;;;;;;;5.27;4.87;;;17.40;99.90;;;;;;4945527;28;20496;-78
2023/09/04 00:20:55;;;;;;;4.93;4.53;;;17.30;99.90;;;;;;4984850;28;20456;-77
2023/09/04 00:23:41;;;;;;;4.50;4.20;;;17.20;99.90;;;;;;4999689;28;20451;-78
2023/09/04 00:26:30;;;;;;;4.90;4.50;;;17.20;99.90;;;;;;5000080;28;20506;-76
2023/09/04 00:32:35;;;;;;;4.80;4.40;;;17.20;99.90;;;;;;4999869;28;20431;-78
2023/09/04 00:42:27;;;;;;;;;;;;;;;;;;;;;
2023/09/04 00:45:26;;;;;;;4.37;4.07;;;17.00;99.90;;;;;;4925385;28;20456;-77
2023/09/04 00:54:04;;;;;;;5.50;5.00;;;16.80;99.90;;;;;;5009739;28;20499;-77
2023/09/04 00:57:05;;;;;;;4.10;3.90;;;16.80;99.90;;;;;;5009169;28;20523;-77
2023/09/04 00:59:54;;;;;;;4.87;4.47;;;16.80;99.90;;;;;;5011206;28;20456;-78
2023/09/04 01:05:58;;;;;;;5.27;4.87;;;16.70;99.90;;;;;;5015059;28;20467;-77
2023/09/04 01:12:04;;;;;;;5.23;4.57;;;16.70;99.90;;;;;;5003908;28;20471;-78
2023/09/04 01:15:26;;;;;;;;;;;;;;;;;;;;;
2023/09/04 01:22:12;;;;;;;5.00;4.50;;;16.70;99.90;;;;;;5012001;28;20418;-77
2023/09/04 01:34:00;;;;;;;4.97;4.47;;;16.50;99.90;;;;;;4978255;28;20520;-76
2023/09/04 01:36:57;;;;;;;4.80;4.50;;;16.50;99.90;;;;;;4981977;28;20453;-77
2023/09/04 01:40:08;;;;;;;;;;;;;;;;;;;;;
2023/09/04 01:43:06;;;;;;;4.63;4.23;;;16.50;99.90;;;;;;4964114;28;20476;-77
2023/09/04 01:48:48;;;;;;;4.57;4.27;;;16.40;99.90;;;;;;4974107;28;20474;-78
2023/09/04 02:00:43;;;;;;;5.40;5.00;;;16.40;99.90;;;;;;4978137;28;20433;-78
2023/09/04 02:03:23;;;;;;;5.13;4.70;;;16.40;99.90;;;;;;4973692;28;20453;-78
2023/09/04 02:08:52;;;;;;;4.83;4.40;;;16.30;99.90;;;;;;4969440;28;21010;-78
2023/09/04 02:11:24;;;;;;;5.30;4.90;;;16.30;99.90;;;;;;4979666;28;20461;-78
2023/09/04 02:14:24;;;;;;;4.67;4.33;;;16.50;99.90;;;;;;4979132;28;20475;-77
2023/09/04 02:17:03;;;;;;;5.20;4.80;;;16.30;99.90;;;;;;4979118;28;20477;-78
2023/09/04 02:19:49;;;;;;;5.13;4.73;;;16.30;99.90;;;;;;4980457;28;20509;-77
2023/09/04 02:26:02;;;;;;;4.77;4.47;;;16.30;99.90;;;;;;4974582;28;20441;-78
2023/09/04 02:28:50;;;;;;;5.73;5.13;;;16.20;99.90;;;;;;4966571;28;20496;-78
2023/09/04 02:31:33;;;;;;;4.60;4.30;;;16.20;99.90;;;;;;4980397;28;20448;-77
2023/09/04 02:37:04;;;;;;;5.53;5.10;;;16.20;99.90;;;;;;4969501;28;21001;-77
2023/09/04 02:39:44;;;;;;;5.77;5.37;;;16.20;99.90;;;;;;4981323;28;20517;-77
2023/09/04 02:42:26;;;;;;;5.60;5.13;;;16.20;99.90;;;;;;4985583;28;20444;-77
2023/09/04 02:45:09;;;;;;;6.13;5.63;;;16.20;99.90;;;;;;4985879;28;20520;-78
2023/09/04 02:50:43;;;;;;;5.67;5.20;;;16.10;99.90;;;;;;4982690;28;20433;-77
2023/09/04 02:56:55;;;;;;;;;;;;;;;;;;;;;
2023/09/04 02:59:58;;;;;;;4.80;4.40;;;16.20;99.90;;;;;;4966025;28;20467;-79
2023/09/04 03:08:22;;;;;;;6.03;5.60;;;16.00;99.90;;;;;;4984027;28;20477;-78
2023/09/04 03:11:07;;;;;;;6.93;5.60;;;16.00;99.90;;;;;;4983645;28;20460;-78
2023/09/04 03:13:58;;;;;;;5.07;4.77;;;15.90;99.90;;;;;;4982299;28;20463;-77
2023/09/04 03:16:32;;;;;;;5.90;5.40;;;16.00;99.90;;;;;;4985198;28;20463;-78
2023/09/04 03:19:19;;;;;;;5.70;5.20;;;15.90;99.90;;;;;;4984471;28;20446;-77
2023/09/04 03:22:06;;;;;;;5.10;4.70;;;15.90;99.90;;;;;;4984420;28;20461;-77
2023/09/04 03:24:58;;;;;;;5.33;4.83;;;15.90;99.90;;;;;;5001934;28;20823;-77
2023/09/04 03:30:36;;;;;;;6.03;5.43;;;15.80;99.90;;;;;;5001264;28;20487;-77
2023/09/04 03:33:20;;;;;;;5.23;4.83;;;15.80;99.90;;;;;;5003472;28;20549;-78
2023/09/04 03:36:05;;;;;;;5.10;4.80;;;15.80;99.90;;;;;;5004177;28;20436;-78
2023/09/04 03:38:37;;;;;;;6.63;5.87;;;15.80;99.90;;;;;;5003789;28;20460;-78
2023/09/04 03:41:26;;;;;;;6.03;5.53;;;15.70;99.90;;;;;;5003103;28;20535;-78
2023/09/04 03:44:04;;;;;;;5.90;5.50;;;15.70;99.90;;;;;;5003332;28;20448;-77
2023/09/04 03:46:42;;;;;;;5.57;5.17;;;15.70;99.90;;;;;;5003017;28;21153;-78
2023/09/04 03:49:17;;;;;;;5.30;4.80;;;15.60;99.90;;;;;;5002728;28;20564;-77
2023/09/04 03:52:03;;;;;;;5.20;4.67;;;15.60;99.90;;;;;;5002696;28;20476;-78
2023/09/04 03:55:12;;;;;;;5.83;5.43;;;15.60;99.90;;;;;;5001356;28;20456;-78
2023/09/04 03:57:51;;;;;;;5.67;4.80;;;15.60;99.90;;;;;;5002807;28;20510;-78
2023/09/04 04:00:22;;;;;;;5.33;4.93;;;15.60;99.90;;;;;;5003175;28;20440;-77
2023/09/04 04:02:54;;;;;;;5.33;4.93;;;15.50;99.90;;;;;;4998181;28;20448;-77
2023/09/04 04:05:28;;;;;;;6.37;5.70;;;15.50;99.90;;;;;;4993941;28;20475;-78
2023/09/04 04:07:58;;;;;;;7.20;6.60;;;15.50;99.90;;;;;;4993058;28;21010;-78
2023/09/04 04:10:29;;;;;;;6.67;6.10;;;15.40;99.90;;;;;;4992439;28;20970;-78
2023/09/04 04:13:02;;;;;;;6.20;5.80;;;15.40;99.90;;;;;;4992380;28;20468;-77
2023/09/04 04:15:54;;;;;;;5.50;5.10;;;15.40;99.90;;;;;;4994228;28;20827;-78
2023/09/04 04:18:44;;;;;;;4.97;4.67;;;15.40;99.90;;;;;;4995655;28;20480;-78
2023/09/04 04:21:41;;;;;;;5.90;5.33;;;15.40;99.90;;;;;;4995156;28;20456;-77
2023/09/04 04:24:19;;;;;;;5.93;5.47;;;15.30;99.90;;;;;;4994453;28;20609;-78
2023/09/04 04:27:00;;;;;;;5.97;5.50;;;15.20;99.90;;;;;;4998233;28;20476;-79
2023/09/04 04:29:37;;;;;;;6.60;5.80;;;15.20;99.90;;;;;;5005493;28;20586;-78
2023/09/04 04:32:19;;;;;;;;;;;;;;;;;;;;;
2023/09/04 04:34:56;;;;;;;6.53;6.00;;;15.20;99.90;;;;;;5010133;28;20450;-81
2023/09/04 04:37:45;;;;;;;6.33;5.83;;;15.20;99.90;;;;;;5008815;28;20503;-78
2023/09/04 04:40:29;;;;;;;6.77;6.27;;;15.20;99.90;;;;;;5008641;28;20448;-79
2023/09/04 04:43:25;;;;;;;6.73;6.20;;;15.20;99.90;;;;;;4989177;28;20480;-77
2023/09/04 04:46:25;;;;;;;6.57;5.97;;;15.10;99.90;;;;;;4988471;28;20547;-78
2023/09/04 04:49:09;;;;;;;6.30;5.70;;;15.20;99.90;;;;;;4987902;28;20565;-78
2023/09/04 04:52:07;;;;;;;7.07;6.27;;;15.10;99.90;;;;;;4991131;28;20456;-78
2023/09/04 04:54:50;;;;;;;6.70;6.20;;;15.10;99.90;;;;;;4982906;28;20447;-78
2023/09/04 04:57:24;;;;;;;6.20;5.60;;;15.00;99.90;;;;;;4976874;28;21105;-78
2023/09/04 05:00:12;;;;;;;6.50;6.00;;;15.10;99.90;;;;;;4977844;28;20500;-78
2023/09/04 05:03:12;;;;;;;6.93;6.30;;;15.20;99.90;;;;;;4980452;28;20457;-79
2023/09/04 05:06:00;;;;;;;6.63;6.13;;;15.20;99.90;;;;;;4985229;28;20469;-79
2023/09/04 05:08:50;;;;;;;7.27;6.67;;;15.20;99.90;;;;;;4989818;28;20504;-78
2023/09/04 05:11:32;;;;;;;5.90;5.47;;;15.20;99.90;;;;;;4994721;28;20539;-77
2023/09/04 05:17:43;;;;;;;7.33;6.63;;;15.20;99.90;;;;;;4988969;28;20492;-78
2023/09/04 05:26:33;;;;;;;7.37;6.73;;;15.20;99.90;;;;;;5012622;28;20872;-79
2023/09/04 05:29:10;;;;;;;8.03;6.50;;;15.20;99.90;;;;;;5005237;28;20564;-79
2023/09/04 05:31:41;;;;;;;7.40;6.70;;;15.30;99.90;;;;;;5005852;28;20523;-80
2023/09/04 05:34:14;;;;;;;7.33;6.73;;;15.30;99.90;;;;;;5006737;28;20535;-80
2023/09/04 05:36:46;;;;;;;7.57;6.87;;;15.30;99.90;;;;;;5003656;28;20468;-79
2023/09/04 05:39:14;;;;;;;6.77;6.17;;;15.30;99.90;;;;;;5007917;28;20455;-78
2023/09/04 05:41:48;;;;;;;8.13;6.73;;;15.40;99.90;;;;;;5002337;28;20452;-78
2023/09/04 05:44:22;;;;;;;8.97;6.70;;;15.50;99.90;;;;;;5003435;28;20616;-80
2023/09/04 05:47:09;;;;;;;6.33;5.73;;;15.50;99.90;;;;;;5003995;28;20507;-79
2023/09/04 05:49:44;;;;;;;6.50;5.90;;;15.60;99.90;;;;;;5005492;28;20503;-79
2023/09/04 05:52:17;;;;;;;6.37;5.90;;;15.70;99.90;;;;;;5010018;28;20432;-78
2023/09/04 05:54:54;;;;;;;8.20;6.40;;;15.80;99.90;;;;;;5012251;28;20489;-79
2023/09/04 05:57:33;;;;;;;6.17;5.77;;;15.90;99.90;;;;;;5014736;28;20452;-79
2023/09/04 06:00:07;;;;;;;7.50;6.90;;;16.00;99.90;;;;;;5012901;28;20503;-79
2023/09/04 06:02:41;;;;;;;6.80;6.20;;;16.10;99.90;;;;;;5013693;28;20452;-79
2023/09/04 06:05:11;;;;;;;6.93;6.43;;;16.10;99.90;;;;;;5013863;28;20442;-78
2023/09/04 06:07:46;;;;;;;7.13;6.53;;;16.30;99.90;;;;;;5012284;28;20480;-80
2023/09/04 06:10:14;;;;;;;10.83;6.47;;;16.40;99.90;;;;;;5011389;28;20471;-79
2023/09/04 06:12:48;;;;;;;11.97;7.20;;;16.40;99.90;;;;;;5011031;28;20536;-80
2023/09/04 06:15:20;;;;;;;8.93;7.00;;;16.50;99.90;;;;;;5010076;28;20457;-79
2023/09/04 06:20:42;;;;;;;7.13;6.53;;;16.60;99.90;;;;;;5008714;28;20448;-79
2023/09/04 06:23:13;;;;;;;7.37;6.77;;;16.70;99.90;;;;;;5007299;28;20500;-79
2023/09/04 06:25:55;;;;;;;7.30;6.50;;;16.80;99.90;;;;;;5005125;28;20464;-80
2023/09/04 06:28:26;;;;;;;10.73;6.30;;;16.80;99.90;;;;;;5010448;28;20479;-80
2023/09/04 06:30:58;;;;;;;7.10;6.50;;;16.90;99.90;;;;;;5007494;28;21015;-78
2023/09/04 06:33:33;;;;;;;7.60;7.00;;;16.90;99.90;;;;;;5007680;28;20455;-80
2023/09/04 06:36:16;;;;;;;7.80;7.00;;;16.90;99.90;;;;;;5008391;28;20447;-81
2023/09/04 06:38:57;;;;;;;7.83;7.03;;;17.00;99.90;;;;;;5011506;28;20486;-80
2023/09/04 06:41:38;;;;;;;7.43;6.83;;;17.10;99.90;;;;;;5008678;28;20460;-79
2023/09/04 06:44:11;;;;;;;8.40;7.70;;;17.20;99.90;;;;;;5008819;28;20459;-78
2023/09/04 06:46:41;;;;;;;8.33;7.53;;;17.20;99.90;;;;;;5007881;28;20632;-80
2023/09/04 06:49:11;;;;;;;7.73;7.00;;;17.10;99.90;;;;;;5008869;28;20476;-79
2023/09/04 06:51:47;;;;;;;7.93;7.23;;;17.20;99.90;;;;;;5006705;28;20448;-79
2023/09/04 06:54:21;;;;;;;8.40;7.50;;;17.30;99.90;;;;;;5006417;28;20471;-79
2023/09/04 06:56:55;;;;;;;7.77;7.17;;;17.50;99.90;;;;;;5003216;28;20483;-82
2023/09/04 06:59:23;;;;;;;7.53;6.60;;;17.60;99.90;;;;;;5003859;28;20427;-78
2023/09/04 07:01:59;;;;;;;6.93;6.27;;;17.70;99.90;;;;;;5004069;28;20460;-80
2023/09/04 07:04:27;;;;;;;7.47;6.77;;;17.80;99.90;;;;;;5008243;28;20520;-82
2023/09/04 07:06:59;;;;;;;6.70;6.10;;;17.80;99.90;;;;;;5008299;28;20458;-80
2023/09/04 07:09:36;;;;;;;7.17;6.63;;;18.00;99.90;;;;;;5008231;28;20490;-80
2023/09/04 07:12:11;;;;;;;6.40;5.80;;;18.00;99.90;;;;;;5007263;28;20463;-81
2023/09/04 07:14:39;;;;;;;8.47;6.40;;;18.20;99.90;;;;;;5007695;28;20448;-81
2023/09/04 07:17:12;;;;;;;8.70;6.50;;;18.20;99.90;;;;;;5009253;28;20476;-81
2023/09/04 07:19:43;;;;;;;7.10;6.50;;;18.40;99.90;;;;;;5010278;28;20460;-81
2023/09/04 07:22:13;;;;;;;6.53;6.03;;;18.50;99.90;;;;;;5010110;28;20464;-81
2023/09/04 07:24:41;;;;;;;6.70;6.20;;;18.60;99.90;;;;;;5004545;28;20451;-80
2023/09/04 07:27:10;;;;;;;6.53;6.00;;;18.60;99.90;;;;;;5005048;28;20523;-81
2023/09/04 07:29:42;;;;;;;6.80;6.20;;;18.80;99.90;;;;;;5006622;28;20571;-78
2023/09/04 07:32:10;;;;;;;6.60;6.10;;;18.90;99.90;;;;;;5005207;28;20440;-79
2023/09/04 07:34:56;;;;;;;6.73;6.23;;;18.90;99.90;;;;;;5006827;28;20439;-80
2023/09/04 07:37:29;;;;;;;7.23;6.47;;;19.10;99.90;;;;;;5010854;28;20444;-79
2023/09/04 07:40:04;;;;;;;6.83;6.07;;;19.10;99.90;;;;;;5011656;28;20456;-79
2023/09/04 07:42:40;;;;;;;7.03;6.43;;;19.20;99.90;;;;;;5007943;28;20456;-80
2023/09/04 07:45:16;;;;;;;5.83;5.43;;;19.20;99.90;;;;;;5005511;28;20463;-78
2023/09/04 07:48:25;;;;;;;6.23;5.50;;;19.40;99.90;;;;;;5002425;28;20483;-78
2023/09/04 07:54:19;;;;;;;6.40;5.73;;;19.60;99.90;;;;;;4982328;28;20448;-80
2023/09/04 07:57:02;;;;;;;6.03;5.60;;;19.90;99.90;;;;;;5000126;28;20480;-82
2023/09/04 07:59:34;;;;;;;6.30;5.67;;;20.10;99.90;;;;;;5001548;28;20456;-79
2023/09/04 08:02:04;;;;;;;6.80;6.10;;;20.10;99.90;;;;;;5004060;28;20432;-81
2023/09/04 08:07:32;;;;;;;5.83;5.33;;;20.40;99.90;;;;;;5011835;28;20468;-81
2023/09/04 08:10:09;;;;;;;5.50;5.20;;;20.60;99.90;;;;;;5012240;28;20479;-81
2023/09/04 08:12:38;;;;;;;5.70;5.30;;;20.80;99.90;;;;;;5009041;28;20510;-78
2023/09/04 08:15:15;;;;;;;5.83;5.43;;;21.00;99.90;;;;;;5008261;28;20531;-80
2023/09/04 08:17:54;;;;;;;6.13;5.47;;;21.10;99.90;;;;;;5008769;28;20478;-80
2023/09/04 08:20:22;;;;;;;6.13;5.63;;;21.00;99.90;;;;;;5007616;28;20451;-78
2023/09/04 08:22:54;;;;;;;5.80;5.30;;;21.30;99.90;;;;;;5003439;28;20455;-79
2023/09/04 08:25:28;;;;;;;5.90;5.40;;;21.50;99.90;;;;;;5006196;28;20519;-81
2023/09/04 08:28:10;;;;;;;5.50;5.10;;;21.70;99.90;;;;;;5005853;28;20484;-79
2023/09/04 08:30:38;;;;;;;5.70;5.30;;;21.70;99.90;;;;;;5004487;28;21002;-78
2023/09/04 08:33:08;;;;;;;5.60;5.20;;;21.90;99.90;;;;;;5002607;28;20796;-79
2023/09/04 08:35:45;;;;;;;5.67;5.37;;;22.10;99.90;;;;;;5003458;28;20452;-78
2023/09/04 08:38:35;;;;;;;5.87;5.37;;;22.40;99.90;;;;;;5004976;28;20475;-78
2023/09/04 08:41:24;;;;;;;6.23;5.00;;;22.60;99.90;;;;;;5006973;28;20859;-78
2023/09/04 08:44:09;;;;;;;6.30;5.80;;;22.60;99.90;;;;;;5006882;28;20452;-78
2023/09/04 08:49:47;;;;;;;5.00;4.60;;;23.10;99.90;;;;;;5008908;28;20452;-82
2023/09/04 08:52:42;;;;;;;5.23;4.83;;;23.50;99.90;;;;;;5015910;28;20448;-79
2023/09/04 08:55:57;;;;;;;5.47;4.97;;;23.60;99.90;;;;;;5006134;28;20539;-81
2023/09/04 09:01:38;;;;;;;4.73;4.43;;;24.40;99.90;;;;;;4985998;28;20440;-80
2023/09/04 09:04:07;;;;;;;6.20;5.70;;;24.60;99.90;;;;;;5005802;28;20483;-81
2023/09/04 09:06:53;;;;;;;5.63;5.13;;;24.80;99.90;;;;;;5009829;28;20533;-82
2023/09/04 09:09:59;;;;;;;5.13;4.73;;;25.10;99.90;;;;;;5010144;28;20453;-81
2023/09/04 09:12:52;;;;;;;4.67;4.37;;;25.20;99.90;;;;;;5006019;28;20518;-80
2023/09/04 09:15:56;;;;;;;6.77;4.47;;;25.40;99.90;;;;;;5007519;28;20448;-77
2023/09/04 09:18:59;;;;;;;4.53;4.23;;;25.60;99.90;;;;;;5003022;28;20486;-79
2023/09/04 09:21:48;;;;;;;4.40;4.10;;;25.60;99.90;;;;;;5008486;28;20493;-80
2023/09/04 09:24:27;;;;;;;4.30;4.00;;;25.80;99.90;;;;;;5005944;28;20440;-80
2023/09/04 09:27:02;;;;;;;4.60;4.20;;;26.20;99.90;;;;;;5007539;28;20479;-80
2023/09/04 09:29:42;;;;;;;4.47;4.20;;;26.10;99.90;;;;;;5005167;28;20486;-79
2023/09/04 09:32:42;;;;;;;4.70;4.07;;;26.70;99.90;;;;;;5003676;28;20435;-81
2023/09/04 09:38:04;;;;;;;4.00;3.70;;;27.10;99.90;;;;;;5004277;28;20463;-79
2023/09/04 09:43:51;;;;;;;4.37;4.10;;;27.20;99.90;;;;;;5002614;28;20432;-82
2023/09/04 09:46:36;;;;;;;4.37;4.07;;;27.40;99.90;;;;;;5004409;28;20444;-81
2023/09/04 09:49:10;;;;;;;3.97;3.67;;;27.30;99.90;;;;;;5007011;28;20480;-79
2023/09/04 09:51:38;;;;;;;3.67;3.47;;;27.50;99.90;;;;;;5007089;28;20543;-82
2023/09/04 09:54:19;;;;;;;3.67;3.47;;;28.00;99.90;;;;;;5008737;28;20433;-79
2023/09/04 09:56:53;;;;;;;4.00;3.70;;;28.00;99.90;;;;;;5004862;28;20451;-80
2023/09/04 09:59:23;;;;;;;3.87;3.67;;;;;;;;;;5007237;28;20535;-79
2023/09/04 10:01:52;;;;;;;3.73;3.53;;;28.50;99.90;;;;;;5006667;28;20461;-78
2023/09/04 10:04:34;;;;;;;3.87;3.67;;;28.90;99.90;;;;;;5005228;28;20448;-79
2023/09/04 10:07:08;;;;;;;3.60;3.30;;;28.90;99.90;;;;;;5001492;28;20487;-81
2023/09/04 10:09:48;;;;;;;3.67;3.37;;;29.00;99.90;;;;;;5006113;28;20459;-81
2023/09/04 10:12:29;;;;;;;4.03;3.73;;;29.20;99.90;;;;;;5004047;28;20444;-79
2023/09/04 10:15:13;;;;;;;3.60;3.40;;;29.10;99.90;;;;;;5003962;28;20456;-82
2023/09/04 10:20:41;;;;;;;3.80;3.60;;;29.10;99.90;;;;;;4999621;28;20438;-79
2023/09/04 10:23:34;;;;;;;3.73;3.43;;;29.00;99.90;;;;;;5001051;28;20451;-79
2023/09/04 10:26:11;;;;;;;4.37;3.23;;;29.00;99.90;;;;;;4997521;28;20441;-79
2023/09/04 10:28:41;;;;;;;3.87;3.67;;;29.20;99.90;;;;;;4996460;28;20472;-83
2023/09/04 10:31:11;;;;;;;4.00;3.80;;;29.50;99.60;;;;;;4996026;28;20472;-79
2023/09/04 10:33:49;;;;;;;3.80;3.60;;;29.50;98.70;;;;;;4997201;28;20460;-83
2023/09/04 10:36:19;;;;;;;4.30;3.50;;;29.50;98.30;;;;;;4997739;28;20474;-79
2023/09/04 10:39:09;;;;;;;4.00;3.70;;;29.70;97.50;;;;;;4998234;28;20454;-81
2023/09/04 10:41:56;;;;;;;3.40;3.20;;;29.70;96.90;;;;;;5001671;28;20823;-83
2023/09/04 10:44:53;;;;;;;3.93;3.73;;;30.00;97.20;;;;;;4999612;28;20486;-81
2023/09/04 10:47:26;;;;;;;3.90;3.70;;;30.00;97.10;;;;;;4997513;28;20468;-80
2023/09/04 10:50:02;;;;;;;3.47;3.23;;;30.10;96.10;;;;;;4998272;28;20452;-81
2023/09/04 10:55:36;;;;;;;3.60;3.40;;;30.40;93.90;;;;;;5002358;28;20451;-80
2023/09/04 10:58:11;;;;;;;3.70;3.50;;;30.40;93.50;;;;;;5006204;28;20475;-82
2023/09/04 11:00:46;;;;;;;3.60;3.40;;;30.50;93.90;;;;;;5004380;28;20451;-82
2023/09/04 11:03:43;;;;;;;3.60;3.40;;;30.60;93.20;;;;;;5004417;28;20456;-80
2023/09/04 11:06:34;;;;;;;6.87;6.27;;;30.80;93.00;;;;;;5004091;28;20467;-84
2023/09/04 11:09:15;;;;;;;3.20;3.00;;;31.30;92.50;;;;;;4999452;28;20452;-83
2023/09/04 11:11:46;;;;;;;3.30;3.10;;;31.50;91.10;;;;;;4998671;28;20511;-79
2023/09/04 11:14:15;;;;;;;3.80;3.60;;;31.30;91.30;;;;;;4998089;28;20448;-80
2023/09/04 11:25:52;;;;;;;3.97;3.67;;;31.80;89.30;;;;;;4997195;28;20453;-79
2023/09/04 11:28:36;;;;;;;3.60;3.40;;;32.00;88.50;;;;;;4998853;28;20474;-80
2023/09/04 11:31:06;;;;;;;3.80;3.60;;;31.80;88.20;;;;;;4997318;28;20480;-79
2023/09/04 11:33:55;;;;;;;3.10;2.90;;;31.90;88.20;;;;;;4996244;28;20487;-79
2023/09/04 11:36:36;;;;;;;3.33;3.03;;;32.00;87.70;;;;;;4996251;28;20456;-79
2023/09/04 11:42:35;;;;;;;3.63;3.43;;;31.80;84.70;;;;;;4998997;28;20443;-83
2023/09/04 11:45:28;;;;;;;4.27;2.87;;;32.00;82.50;;;;;;4999068;28;20448;-78
2023/09/04 11:48:04;;;;;;;8.63;3.07;;;32.00;77.10;;;;;;4996707;28;20546;-80
2023/09/04 11:50:38;;;;;;;4.00;2.93;;;31.90;75.70;;;;;;4998005;28;20869;-80
2023/09/04 11:53:24;;;;;;;3.27;3.07;;;32.10;74.70;;;;;;4998213;28;20479;-78
2023/09/04 11:56:24;;;;;;;3.40;3.10;;;32.50;73.30;;;;;;4996910;28;20547;-78
2023/09/04 11:59:42;;;;;;;3.33;3.03;;;32.60;73.90;;;;;;4997645;28;20458;-80
2023/09/04 12:02:23;;;;;;;2.47;2.37;;;32.70;72.30;;;;;;4994229;28;20453;-79
2023/09/04 12:05:05;;;;;;;3.83;3.20;;;33.00;68.80;;;;;;4995978;28;20797;-79
2023/09/04 12:13:44;;;;;;;3.30;3.10;;;33.40;64.70;;;;;;4961352;29;20517;-81
2023/09/04 12:17:13;;;;;;;3.50;3.20;;;33.50;61.80;;;;;;5003599;28;20452;-79
2023/09/04 12:20:10;;;;;;;2.77;2.67;;;33.30;60.90;;;;;;4982767;28;20880;-81
2023/09/04 12:23:19;;;;;;;3.37;3.17;;;33.80;60.10;;;;;;5001870;28;20439;-82
2023/09/04 12:25:56;;;;;;;3.13;2.93;;;33.80;59.80;;;;;;4990171;28;20459;-79
2023/09/04 12:28:40;;;;;;;3.00;2.67;;;33.60;58.40;;;;;;4995595;28;20483;-80
2023/09/04 12:31:23;;;;;;;8.83;3.47;;;33.90;59.60;;;;;;4996372;28;20487;-79
2023/09/04 12:34:21;;;;;;;2.77;2.57;;;33.90;57.90;;;;;;4996204;28;20526;-81
2023/09/04 12:37:08;;;;;;;3.00;2.80;;;34.20;58.70;;;;;;4996331;28;20491;-79
2023/09/04 12:39:43;;;;;;;2.70;2.60;;;34.20;56.50;;;;;;4994978;28;20522;-82
2023/09/04 12:42:21;;;;;;;2.60;2.50;;;34.20;56.50;;;;;;4997005;28;20456;-81
2023/09/04 12:44:58;;;;;;;3.03;2.80;;;34.10;55.90;;;;;;4997632;28;20940;-81
2023/09/04 12:47:44;;;;;;;3.00;2.80;;;34.00;55.10;;;;;;5000054;28;21031;-80
2023/09/04 12:50:22;;;;;;;3.13;2.93;;;34.00;55.80;;;;;;5001238;28;20448;-80
2023/09/04 12:53:03;;;;;;;2.93;2.73;;;33.70;55.60;;;;;;5004996;28;20491;-82
2023/09/04 12:55:37;;;;;;;3.30;3.00;;;33.70;56.00;;;;;;5006382;28;20456;-81
2023/09/04 12:58:15;;;;;;;3.40;3.10;;;33.50;55.40;;;;;;5007544;28;20483;-83
2023/09/04 13:00:49;;;;;;;3.13;2.93;;;33.60;55.60;;;;;;5005575;28;20467;-83
2023/09/04 13:03:25;;;;;;;2.90;2.70;;;33.90;55.50;;;;;;5002846;28;20559;-79
2023/09/04 13:05:56;;;;;;;3.30;3.10;;;34.30;54.60;;;;;;5003352;28;20538;-82
2023/09/04 13:08:38;;;;;;;3.50;3.20;;;34.60;53.20;;;;;;5003564;28;20495;-82
2023/09/04 13:11:17;;;;;;;2.87;2.67;;;34.60;52.40;;;;;;5013006;28;20500;-81
2023/09/04 13:13:51;;;;;;;2.60;2.40;;;34.50;52.30;;;;;;5008287;28;20456;-80
2023/09/04 13:16:27;;;;;;;3.23;3.03;;;34.50;52.50;;;;;;5010877;28;20539;-80
2023/09/04 13:18:58;;;;;;;3.93;3.00;;;34.60;52.70;;;;;;5014297;28;20479;-80
2023/09/04 13:21:31;;;;;;;2.77;2.63;;;34.50;53.00;;;;;;5011722;28;20444;-80
2023/09/04 13:24:05;;;;;;;3.10;2.80;;;34.50;52.90;;;;;;5003118;28;20467;-79
2023/09/04 13:26:36;;;;;;;3.03;2.83;;;34.40;53.60;;;;;;5001995;28;20452;-82
2023/09/04 13:29:10;;;;;;;2.97;2.77;;;34.30;53.10;;;;;;5002122;28;20456;-79
2023/09/04 13:31:41;;;;;;;2.70;2.60;;;34.30;53.20;;;;;;5006706;28;20511;-82
2023/09/04 13:34:29;;;;;;;3.30;3.00;;;34.50;53.50;;;;;;5003614;28;20444;-79
2023/09/04 13:37:01;;;;;;;2.70;2.60;;;34.80;52.80;;;;;;5001633;28;20535;-80
2023/09/04 13:39:38;;;;;;;3.03;2.83;;;34.20;53.30;;;;;;5004404;28;20452;-81
2023/09/04 13:42:14;;;;;;;2.63;2.53;;;34.70;53.20;;;;;;5005977;28;20463;-81
2023/09/04 13:44:47;;;;;;;3.70;3.20;;;35.00;53.70;;;;;;5006847;28;20448;-78
2023/09/04 13:47:15;;;;;;;3.47;3.17;;;34.80;53.20;;;;;;5005499;28;20463;-81
2023/09/04 13:49:50;;;;;;;2.60;2.50;;;34.90;52.90;;;;;;5006940;28;20811;-80
2023/09/04 13:52:21;;;;;;;2.90;2.80;;;34.90;50.50;;;;;;5006282;28;20491;-80
2023/09/04 13:54:58;;;;;;;3.00;2.80;;;34.60;50.90;;;;;;5006426;28;20555;-82
2023/09/04 13:57:33;;;;;;;3.00;2.80;;;34.50;51.20;;;;;;5005478;28;20476;-81
2023/09/04 14:00:06;;;;;;;3.00;2.80;;;34.60;51.70;;;;;;5003773;28;20448;-80
2023/09/04 14:02:43;;;;;;;7.13;6.60;;;34.80;50.80;;;;;;5001398;28;20453;-80
2023/09/04 14:05:29;;;;;;;4.37;3.87;;;34.80;50.50;;;;;;5003729;28;20485;-80
2023/09/04 14:07:57;;;;;;;3.03;2.83;;;34.90;50.50;;;;;;5002073;28;20550;-81
2023/09/04 14:10:39;;;;;;;3.03;2.83;;;34.50;50.40;;;;;;5003192;28;20833;-79
2023/09/04 14:13:12;;;;;;;3.00;2.80;;;34.30;49.90;;;;;;5001643;28;20508;-81
2023/09/04 14:15:44;;;;;;;4.00;2.90;;;34.60;51.00;;;;;;5002804;28;20455;-78
2023/09/04 14:18:15;;;;;;;3.57;3.37;;;34.80;50.50;;;;;;5002958;28;20483;-79
2023/09/04 14:20:47;;;;;;;3.27;3.07;;;35.10;50.30;;;;;;4999906;28;20463;-79
2023/09/04 14:23:23;;;;;;;3.47;3.23;;;35.20;50.00;;;;;;5001218;28;20472;-79
2023/09/04 14:26:05;;;;;;;3.10;2.90;;;35.30;50.00;;;;;;5000927;28;20462;-80
2023/09/04 14:28:34;;;;;;;2.80;2.70;;;35.00;49.30;;;;;;5002103;28;20531;-80
2023/09/04 14:31:17;;;;;;;3.10;2.90;;;34.60;49.40;;;;;;4999934;28;20464;-79
2023/09/04 14:33:47;;;;;;;3.50;3.30;;;34.60;50.10;;;;;;5001157;28;20531;-80
2023/09/04 14:36:15;;;;;;;5.10;2.80;;;34.40;50.80;;;;;;5000615;28;20452;-80
2023/09/04 14:38:48;;;;;;;7.33;3.33;;;34.40;50.00;;;;;;5000396;28;20479;-79
2023/09/04 14:41:28;;;;;;;3.80;3.60;;;34.70;50.30;;;;;;5001048;28;20470;-82
2023/09/04 14:44:09;;;;;;;2.97;2.83;;;34.30;50.10;;;;;;5003624;28;20475;-81
2023/09/04 14:46:42;;;;;;;3.50;3.30;;;34.20;49.20;;;;;;5002190;28;20444;-81
2023/09/04 14:49:12;;;;;;;3.23;3.03;;;34.00;49.60;;;;;;5001646;28;20435;-80
2023/09/04 14:51:43;;;;;;;3.60;3.40;;;34.40;48.80;;;;;;4985946;28;20469;-81
2023/09/04 14:54:13;;;;;;;3.67;3.30;;;34.20;48.20;;;;;;4982683;28;20453;-79
2023/09/04 14:56:46;;;;;;;3.40;3.20;;;34.20;48.60;;;;;;4982821;28;20484;-81
2023/09/04 14:59:17;;;;;;;3.23;2.93;;;34.40;48.20;;;;;;4982145;28;20437;-79
2023/09/04 15:01:53;;;;;;;5.00;3.13;;;34.50;48.60;;;;;;4982092;28;20453;-81
2023/09/04 15:04:26;;;;;;;3.47;3.27;;;34.60;48.70;;;;;;4986112;28;20449;-78
2023/09/04 15:07:00;;;;;;;3.20;2.97;;;34.30;47.80;;;;;;4986223;28;20495;-80
2023/09/04 15:09:41;;;;;;;3.80;3.50;;;33.90;47.80;;;;;;4987294;28;20481;-81
2023/09/04 15:12:13;;;;;;;5.17;4.70;;;34.10;48.10;;;;;;4983051;28;20469;-79
2023/09/04 15:14:46;;;;;;;3.60;3.40;;;34.40;47.50;;;;;;4980455;28;20457;-79
2023/09/04 15:17:17;;;;;;;3.20;3.00;;;34.40;46.50;;;;;;4978290;28;20515;-79
2023/09/04 15:19:52;;;;;;;3.97;3.50;;;34.30;45.90;;;;;;4981793;28;20464;-81
2023/09/04 15:22:27;;;;;;;3.57;3.27;;;34.40;45.40;;;;;;4980838;28;20448;-80
2023/09/04 15:25:01;;;;;;;4.40;4.00;;;34.40;45.60;;;;;;5001408;28;20491;-80
2023/09/04 15:27:37;;;;;;;3.50;3.20;;;34.30;45.90;;;;;;5004734;28;20479;-80
2023/09/04 15:30:10;;;;;;;5.50;3.30;;;34.60;45.60;;;;;;5000050;28;20456;-79
2023/09/04 15:32:40;;;;;;;3.37;3.07;;;34.60;45.70;;;;;;4998692;28;20612;-78
2023/09/04 15:35:19;;;;;;;3.27;3.07;;;35.00;46.30;;;;;;4996194;28;20467;-79
2023/09/04 15:37:50;;;;;;;3.67;3.47;;;34.80;46.40;;;;;;4998444;28;20467;-80
2023/09/04 15:40:21;;;;;;;3.37;3.17;;;34.60;47.40;;;;;;4996550;28;20468;-80
2023/09/04 15:45:42;;;;;;;3.47;3.17;;;34.60;48.50;;;;;;4988498;28;20451;-80
2023/09/04 15:48:16;;;;;;;3.90;3.07;;;34.00;49.80;;;;;;4999779;28;20466;-79
2023/09/04 15:50:49;;;;;;;3.60;3.10;;;33.30;51.20;;;;;;4999697;28;20472;-83
2023/09/04 15:53:24;;;;;;;3.23;3.03;;;33.50;51.30;;;;;;4997043;28;20491;-80
2023/09/04 15:55:56;;;;;;;3.63;3.33;;;33.70;51.30;;;;;;4997603;28;20463;-79
2023/09/04 15:58:25;;;;;;;3.70;3.50;;;33.70;51.30;;;;;;4998110;28;20487;-79
2023/09/04 16:00:53;;;;;;;3.20;3.00;;;33.80;51.70;;;;;;4996696;28;20448;-79
2023/09/04 16:03:23;;;;;;;3.90;3.50;;;33.30;54.20;;;;;;4996510;28;20543;-75
2023/09/04 16:05:54;;;;;;;3.33;3.13;;;32.90;54.30;;;;;;4997673;28;20452;-77
2023/09/04 16:08:24;;;;;;;3.40;3.20;;;32.70;54.70;;;;;;4998211;28;20472;-80
2023/09/04 16:10:57;;;;;;;3.57;3.37;;;32.70;52.50;;;;;;5000525;28;20452;-80
2023/09/04 16:13:34;;;;;;;3.40;3.10;;;32.60;52.80;;;;;;5004729;28;20473;-81